Time;durP1;ratioP1;P1;durP2;ratioP2;P2;SDS_P1;SDS_P2;PMS_P1;PMS_P2;Temp;Humidity;BMP_temperature;BMP_pressure;BME280_temperature;BME280_humidity;BME280_pressure;Samples;Min_cycle;Max_cycle;Signal;HPM_P1;HPM_P2
2022/04/21 00:00:09;;;;;;;11.57;3.50;;;;;;;8.29;70.12;100745.47;2064644;28;20293;-60
2022/04/21 00:01:12;;;;;;;16.52;3.60;;;;;;;8.31;70.14;100749.50;2063544;28;20646;-61
2022/04/21 00:02:18;;;;;;;11.70;3.45;;;;;;;8.33;69.68;100743.91;2056001;28;20402;-60
2022/04/21 00:03:20;;;;;;;12.55;3.60;;;;;;;8.33;69.70;100742.03;2056884;28;20297;-60
2022/04/21 00:04:22;;;;;;;12.63;3.55;;;;;;;8.32;69.74;100744.97;2055854;28;20662;-61
2022/04/21 00:05:26;;;;;;;8.10;3.55;;;;;;;8.31;69.92;100744.16;2048500;28;20303;-60
2022/04/21 00:06:30;;;;;;;8.27;3.30;;;;;;;8.33;70.45;100742.03;2047917;29;20294;-61
2022/04/21 00:07:33;;;;;;;10.13;3.15;;;;;;;8.33;69.53;100742.03;2048675;28;20282;-60
2022/04/21 00:08:37;;;;;;;7.95;3.30;;;;;;;8.33;69.50;100743.91;2063564;28;20281;-60
2022/04/21 00:09:39;;;;;;;10.38;3.58;;;;;;;8.33;69.41;100741.22;2049264;28;20382;-60
2022/04/21 00:10:41;;;;;;;8.32;3.45;;;;;;;8.34;69.82;100740.16;2055710;28;20293;-60
2022/04/21 00:11:46;;;;;;;10.30;3.22;;;;;;;8.33;69.54;100741.22;2056213;28;20294;-60
2022/04/21 00:12:50;;;;;;;8.90;3.35;;;;;;;8.29;69.24;100742.78;2063843;28;20304;-61
2022/04/21 00:13:52;;;;;;;10.25;3.83;;;;;;;8.23;69.58;100741.16;2063881;28;20280;-61
2022/04/21 00:14:55;;;;;;;10.27;3.40;;;;;;;8.21;69.71;100736.06;2063745;28;20288;-61
2022/04/21 00:15:58;;;;;;;11.48;3.88;;;;;;;8.29;70.12;100740.13;2067844;28;20805;-60
2022/04/21 00:17:00;;;;;;;10.10;3.50;;;;;;;8.30;69.56;100741.75;2072483;28;20300;-60
2022/04/21 00:18:04;;;;;;;13.35;3.35;;;;;;;8.28;69.73;100738.50;2071718;28;20701;-62
2022/04/21 00:19:09;;;;;;;11.40;3.28;;;;;;;8.29;69.61;100740.94;2071657;28;20752;-61
2022/04/21 00:20:12;;;;;;;10.77;3.45;;;;;;;8.30;69.54;100739.88;2071551;28;20304;-61
2022/04/21 00:21:14;;;;;;;11.10;3.30;;;;;;;8.36;69.56;100740.72;2071795;28;20280;-60
2022/04/21 00:23:44;;;;;;;12.82;3.30;;;;;;;8.44;69.59;100748.28;2072604;28;20277;-60
2022/04/21 00:24:48;;;;;;;11.43;3.50;;;;;;;8.43;69.15;100741.31;2055537;28;20297;-60
2022/04/21 00:26:00;;;;;;;11.90;3.75;;;;;;;8.41;68.93;100743.44;2056697;28;20278;-60
2022/04/21 00:27:04;;;;;;;7.75;3.20;;;;;;;8.42;68.97;100746.91;2064940;28;20282;-60
2022/04/21 00:28:07;;;;;;;9.30;4.07;;;;;;;8.35;68.93;100744.44;2063983;28;20289;-61
2022/04/21 00:29:12;;;;;;;9.13;2.97;;;;;;;8.32;69.17;100744.97;2063916;28;20281;-61
2022/04/21 00:30:20;;;;;;;8.52;3.58;;;;;;;8.35;68.82;100742.59;2071750;28;20284;-63
2022/04/21 00:31:23;;;;;;;8.13;3.05;;;;;;;8.38;68.85;100741.28;2063513;28;20043;-61
2022/04/21 00:32:25;;;;;;;11.43;3.53;;;;;;;8.39;68.95;100745.59;2056616;28;20754;-61
2022/04/21 00:33:34;;;;;;;7.65;3.13;;;;;;;8.42;69.15;100738.88;2048529;28;20611;-61
2022/04/21 00:34:40;;;;;;;15.40;3.63;;;;;;;8.43;68.75;100741.31;2050436;28;20287;-61
2022/04/21 00:35:44;;;;;;;10.10;3.22;;;;;;;8.44;69.14;100747.47;2064772;28;20054;-60
2022/04/21 00:36:49;;;;;;;7.50;2.92;;;;;;;8.45;68.81;100743.72;2063502;28;20297;-60
2022/04/21 00:37:58;;;;;;;7.85;3.05;;;;;;;8.43;68.78;100738.63;2063653;28;20293;-61
2022/04/21 00:39:00;;;;;;;9.40;3.50;;;;;;;8.44;68.84;100736.75;2064742;28;20289;-61
2022/04/21 00:40:04;;;;;;;9.02;3.30;;;;;;;8.47;69.11;100742.41;2062845;28;20427;-63
2022/04/21 00:41:09;;;;;;;10.90;3.92;;;;;;;8.48;69.16;100741.34;2063923;28;20804;-60
2022/04/21 00:42:14;;;;;;;12.57;3.38;;;;;;;8.46;69.10;100738.13;2071114;28;20280;-61
2022/04/21 00:43:15;;;;;;;11.98;3.70;;;;;;;8.46;69.04;100737.31;2071510;28;20688;-61
2022/04/21 00:44:20;;;;;;;7.90;3.15;;;;;;;8.43;68.70;100741.31;2064973;28;20633;-60
2022/04/21 00:45:29;;;;;;;9.95;3.42;;;;;;;8.40;69.15;100736.47;2063759;28;20285;-60
2022/04/21 00:46:32;;;;;;;15.90;3.50;;;;;;;8.41;69.13;100730.03;2063830;28;20812;-60
2022/04/21 00:47:40;;;;;;;9.88;2.92;;;;;;;8.44;69.26;100734.06;2064380;28;20650;-62
2022/04/21 00:48:45;;;;;;;10.75;3.20;;;;;;;8.44;69.14;100737.56;2064022;28;20285;-62
2022/04/21 00:49:50;;;;;;;8.00;3.05;;;;;;;8.45;69.00;100728.47;2055662;28;20666;-60
2022/04/21 00:50:55;;;;;;;7.32;3.10;;;;;;;8.46;69.11;100732.75;2055237;28;20289;-61
2022/04/21 00:52:02;;;;;;;11.30;3.53;;;;;;;8.44;68.82;100726.03;2061617;28;20296;-62
2022/04/21 00:53:09;;;;;;;7.90;3.10;;;;;;;8.43;68.96;100733.28;2064287;28;20286;-61
2022/04/21 00:54:15;;;;;;;5.30;3.00;;;;;;;8.44;69.26;100737.56;2072163;28;20292;-61
2022/04/21 00:55:20;;;;;;;10.98;3.10;;;;;;;8.47;68.95;100730.88;2072415;28;20303;-62
2022/04/21 00:56:23;;;;;;;8.77;3.05;;;;;;;8.50;68.87;100735.72;2071472;28;20277;-61
2022/04/21 00:57:28;;;;;;;10.48;3.45;;;;;;;8.51;68.69;100731.97;2063742;28;20293;-61
2022/04/21 00:58:33;;;;;;;9.00;2.83;;;;;;;8.51;68.61;100740.00;2056456;28;20359;-61
2022/04/21 00:59:37;;;;;;;12.73;3.45;;;;;;;8.51;68.81;100732.81;2063873;28;20292;-61
2022/04/21 01:00:42;;;;;;;10.55;3.20;;;;;;;8.52;68.48;100736.28;2063666;28;20289;-61
2022/04/21 01:03:14;;;;;;;11.55;3.30;;;;;;;8.50;68.70;100730.38;2064314;28;20614;-62
2022/04/21 01:04:18;;;;;;;7.20;3.38;;;;;;;8.51;68.71;100730.13;2063829;28;20289;-61
2022/04/21 01:05:31;;;;;;;12.23;3.10;;;;;;;8.49;68.46;100724.19;2063031;28;20293;-61
2022/04/21 01:06:34;;;;;;;11.25;3.55;;;;;;;8.39;68.45;100724.16;2063738;28;20300;-61
2022/04/21 01:07:37;;;;;;;14.45;3.65;;;;;;;8.34;68.73;100727.56;2056576;28;20275;-61
2022/04/21 01:08:42;;;;;;;6.68;3.15;;;;;;;8.34;68.87;100729.44;2055802;28;20289;-61
2022/04/21 01:09:44;;;;;;;7.63;2.83;;;;;;;8.31;69.36;100727.28;2066881;28;20289;-61
2022/04/21 01:10:50;;;;;;;10.50;3.60;;;;;;;8.35;69.36;100723.00;2070881;28;20432;-62
2022/04/21 01:11:54;;;;;;;9.88;3.00;;;;;;;8.38;69.46;100733.25;2071410;28;20296;-62
2022/04/21 01:12:58;;;;;;;8.30;3.50;;;;;;;8.42;69.39;100725.47;2071698;28;20795;-61
2022/04/21 01:14:00;;;;;;;12.43;3.70;;;;;;;8.45;68.92;100730.31;2072239;28;20292;-61
2022/04/21 01:15:03;;;;;;;9.98;3.42;;;;;;;8.44;69.27;100732.19;2070642;28;20277;-62
2022/04/21 01:16:08;;;;;;;12.10;3.28;;;;;;;8.44;69.37;100731.41;2058394;28;20286;-61
2022/04/21 01:17:12;;;;;;;11.38;3.85;;;;;;;8.46;69.09;100735.44;2063376;28;20796;-61
2022/04/21 01:18:28;;;;;;;12.35;3.85;;;;;;;8.48;68.83;100727.97;2056573;28;20298;-62
2022/04/21 01:19:30;;;;;;;11.80;3.50;;;;;;;8.50;68.66;100725.81;2057000;28;20287;-61
2022/04/21 01:20:34;;;;;;;13.75;3.83;;;;;;;8.51;68.82;100734.66;2055896;28;20373;-62
2022/04/21 01:21:39;;;;;;;9.55;3.30;;;;;;;8.43;68.58;100724.44;2055559;28;20293;-62
2022/04/21 01:22:41;;;;;;;10.75;3.88;;;;;;;8.42;68.61;100728.16;2055786;28;20298;-61
2022/04/21 01:23:43;;;;;;;11.82;3.20;;;;;;;8.39;68.62;100723.34;2063398;28;20302;-61
2022/04/21 01:24:46;;;;;;;9.63;3.58;;;;;;;8.40;68.51;100720.41;2063749;28;20404;-61
2022/04/21 01:25:50;;;;;;;10.90;3.10;;;;;;;8.43;68.44;100725.25;2056229;28;20309;-61
2022/04/21 01:26:55;;;;;;;11.68;3.60;;;;;;;8.46;68.99;100727.41;2057692;28;20669;-61
2022/04/21 01:28:00;;;;;;;7.50;3.15;;;;;;;8.44;68.91;100721.47;2065584;28;20304;-62
2022/04/21 01:29:06;;;;;;;10.40;3.55;;;;;;;8.34;68.98;100735.59;2072817;28;20308;-62
2022/04/21 01:30:12;;;;;;;8.18;3.50;;;;;;;8.33;68.96;100725.16;2071702;28;20633;-61
2022/04/21 01:31:19;;;;;;;9.60;3.45;;;;;;;8.34;68.97;100726.75;2065604;28;20746;-61
2022/04/21 01:32:23;;;;;;;11.07;3.60;;;;;;;8.39;69.00;100724.16;2065333;28;20292;-61
2022/04/21 01:33:26;;;;;;;6.28;3.42;;;;;;;8.44;68.72;100731.41;2072477;28;20056;-61
2022/04/21 01:34:28;;;;;;;8.77;3.50;;;;;;;8.46;68.71;100730.06;2064651;28;20403;-61
2022/04/21 01:35:37;;;;;;;8.90;3.33;;;;;;;8.46;68.97;100729.28;2065047;28;20775;-61
2022/04/21 01:42:06;;;;;;;;;;;;;;;8.50;69.04;100720.44;2057493;28;20821;-61
2022/04/21 01:43:09;;;;;;;14.20;4.10;;;;;;;8.46;69.34;100711.31;2059850;28;20417;-61
2022/04/21 01:44:13;;;;;;;10.25;3.63;;;;;;;8.51;68.88;100724.75;2058156;28;20297;-61
2022/04/21 01:45:16;;;;;;;10.48;3.60;;;;;;;8.44;68.70;100726.84;2064963;28;20286;-61
2022/04/21 01:46:21;;;;;;;12.55;3.72;;;;;;;8.47;69.09;100720.97;2064474;28;20289;-61
2022/04/21 01:47:25;;;;;;;13.20;3.42;;;;;;;8.45;69.18;100717.75;2064612;28;20289;-60
2022/04/21 01:48:27;;;;;;;10.10;3.47;;;;;;;8.45;68.56;100719.59;2064917;28;20297;-60
2022/04/21 01:49:36;;;;;;;9.30;3.60;;;;;;;8.42;68.39;100722.81;2064214;28;20285;-61
2022/04/21 01:50:39;;;;;;;6.93;3.25;;;;;;;8.40;68.60;100714.25;2056766;28;20336;-61
2022/04/21 01:51:44;;;;;;;6.07;3.00;;;;;;;8.39;68.68;100718.78;2057001;28;20297;-61
2022/04/21 01:52:49;;;;;;;11.70;4.25;;;;;;;8.40;68.85;100714.25;2072998;28;20289;-60
2022/04/21 01:53:53;;;;;;;8.38;2.90;;;;;;;8.44;68.79;100709.97;2056697;28;20282;-60
2022/04/21 01:55:02;;;;;;;9.30;3.00;;;;;;;8.47;68.68;100715.59;2057132;28;20287;-60
2022/04/21 01:56:07;;;;;;;10.43;3.53;;;;;;;8.50;68.55;100715.09;2064906;28;20292;-59
2022/04/21 01:57:10;;;;;;;10.95;3.55;;;;;;;8.50;68.36;100714.28;2064939;28;20062;-60
2022/04/21 01:58:14;;;;;;;8.82;2.90;;;;;;;8.49;68.49;100716.16;2072854;28;20444;-60
2022/04/21 01:59:18;;;;;;;7.95;3.20;;;;;;;8.50;67.99;100717.75;2064751;28;20309;-60
2022/04/21 02:00:21;;;;;;;9.65;3.95;;;;;;;8.57;68.48;100720.22;2064958;28;20320;-60
2022/04/21 02:01:28;;;;;;;7.07;3.03;;;;;;;8.62;68.10;100722.13;2064438;28;20808;-61
2022/04/21 02:02:32;;;;;;;11.70;3.55;;;;;;;8.65;68.11;100718.91;2064571;28;20297;-61
2022/04/21 02:03:34;;;;;;;15.65;4.05;;;;;;;8.68;68.18;100716.50;2059824;28;20294;-61
2022/04/21 02:04:37;;;;;;;9.45;3.75;;;;;;;8.70;67.82;100713.56;2056734;28;20298;-61
2022/04/21 02:05:39;;;;;;;12.05;4.07;;;;;;;8.73;67.85;100713.03;2064659;28;20706;-60
2022/04/21 02:06:44;;;;;;;9.50;3.60;;;;;;;8.71;67.78;100715.19;2064858;28;20285;-61
2022/04/21 02:07:48;;;;;;;10.07;3.75;;;;;;;8.69;68.30;100715.44;2064426;28;20790;-61
2022/04/21 02:08:51;;;;;;;12.00;3.95;;;;;;;8.68;67.93;100715.72;2063282;28;20297;-61
2022/04/21 02:10:01;;;;;;;13.77;4.47;;;;;;;8.70;67.84;100708.19;2067780;28;20293;-61
2022/04/21 02:11:03;;;;;;;10.02;3.75;;;;;;;8.72;68.50;100708.75;2064819;28;20301;-61
2022/04/21 02:12:11;;;;;;;13.18;4.00;;;;;;;8.72;68.44;100706.06;2064823;28;20294;-61
2022/04/21 02:13:18;;;;;;;9.75;3.70;;;;;;;8.68;68.17;100708.47;2065278;28;20642;-61
2022/04/21 02:14:23;;;;;;;14.00;4.40;;;;;;;8.68;68.03;100715.72;2064853;28;20317;-61
2022/04/21 02:15:25;;;;;;;13.73;3.97;;;;;;;8.70;68.33;100706.34;2064626;28;20316;-61
2022/04/21 02:16:30;;;;;;;9.38;3.83;;;;;;;8.72;68.12;100701.50;2056983;28;20302;-61
2022/04/21 02:17:33;;;;;;;11.18;3.72;;;;;;;8.71;68.45;100699.91;2048773;28;20315;-61
2022/04/21 02:18:39;;;;;;;9.07;3.67;;;;;;;8.67;68.23;100703.38;2057833;28;20294;-61
2022/04/21 02:19:43;;;;;;;10.50;4.25;;;;;;;8.65;68.26;100702.84;2048722;29;20309;-61
2022/04/21 02:20:45;;;;;;;14.48;3.97;;;;;;;8.59;68.60;100707.38;2041724;28;20302;-60
2022/04/21 02:21:49;;;;;;;11.20;4.03;;;;;;;8.54;68.50;100697.44;2056986;28;20290;-60
2022/04/21 02:22:52;;;;;;;9.98;3.75;;;;;;;8.55;68.46;100711.63;2063909;28;20297;-60
2022/04/21 02:23:54;;;;;;;7.25;3.58;;;;;;;8.55;68.47;100706.28;2064826;28;20290;-61
2022/04/21 02:25:22;;;;;;;10.38;3.60;;;;;;;8.57;69.11;100704.97;2056718;28;20305;-61
2022/04/21 02:26:26;;;;;;;11.55;3.95;;;;;;;8.61;68.60;100702.56;2056392;28;20286;-61
2022/04/21 02:27:31;;;;;;;9.52;4.10;;;;;;;8.58;68.61;100701.19;2064694;28;20644;-61
2022/04/21 02:28:32;;;;;;;9.88;4.10;;;;;;;8.55;68.59;100696.38;2065122;28;20661;-61
2022/04/21 02:29:35;;;;;;;8.95;3.67;;;;;;;8.50;69.01;100701.69;2056324;28;20306;-61
2022/04/21 02:30:41;;;;;;;12.60;3.88;;;;;;;8.47;69.22;100699.53;2056702;28;20297;-61
2022/04/21 02:31:44;;;;;;;14.75;4.45;;;;;;;8.49;68.96;100694.72;2065202;28;20304;-61
2022/04/21 02:32:49;;;;;;;10.13;3.42;;;;;;;8.47;68.78;100696.06;2064109;28;20800;-61
2022/04/21 02:33:54;;;;;;;8.32;3.35;;;;;;;8.49;69.52;100701.97;2056604;28;20298;-61
2022/04/21 02:34:58;;;;;;;8.80;3.45;;;;;;;8.50;69.23;100704.38;2064089;28;20741;-61
2022/04/21 02:36:01;;;;;;;6.70;3.10;;;;;;;8.53;69.35;100701.16;2064402;28;20289;-61
2022/04/21 02:37:02;;;;;;;12.93;3.28;;;;;;;8.57;68.91;100715.69;2061770;28;20308;-61
2022/04/21 02:38:05;;;;;;;5.57;2.95;;;;;;;8.61;69.04;100701.72;2056648;28;20920;-61
2022/04/21 02:39:07;;;;;;;11.07;3.42;;;;;;;8.65;68.48;100706.31;2056411;28;20883;-61
2022/04/21 02:40:12;;;;;;;11.63;4.15;;;;;;;8.69;68.71;100707.41;2056555;28;20397;-61
2022/04/21 02:41:15;;;;;;;9.05;3.90;;;;;;;8.73;68.65;100707.69;2057010;28;20294;-61
2022/04/21 02:42:19;;;;;;;9.63;3.70;;;;;;;8.75;68.41;100714.41;2056544;28;20805;-61
2022/04/21 02:43:25;;;;;;;10.70;4.07;;;;;;;8.75;67.89;100716.28;2056434;28;20293;-61
2022/04/21 02:44:29;;;;;;;10.10;4.72;;;;;;;8.75;68.30;100706.34;2061351;28;20289;-61
2022/04/21 02:45:36;;;;;;;9.32;4.28;;;;;;;8.80;68.14;100711.75;2048940;28;20287;-61
2022/04/21 02:46:38;;;;;;;12.93;4.15;;;;;;;8.83;68.50;100707.75;2049843;28;20286;-60
2022/04/21 02:47:44;;;;;;;12.18;4.07;;;;;;;8.86;68.85;100712.56;2064031;28;20320;-61
2022/04/21 02:48:51;;;;;;;11.75;4.15;;;;;;;8.88;68.40;100710.41;2064449;28;20298;-61
2022/04/21 02:49:54;;;;;;;9.98;3.63;;;;;;;8.87;68.30;100703.44;2056357;28;20290;-60
2022/04/21 02:51:03;;;;;;;10.88;3.30;;;;;;;8.86;68.31;100707.22;2064425;28;20746;-61
2022/04/21 02:52:10;;;;;;;7.50;3.65;;;;;;;8.90;68.52;100712.84;2065300;28;20653;-62
2022/04/21 02:53:13;;;;;;;8.55;3.92;;;;;;;8.90;68.48;100705.59;2064066;28;20046;-62
2022/04/21 02:58:23;;;;;;;9.75;3.78;;;;;;;8.78;68.59;100716.56;2072485;28;20312;-61
2022/04/21 02:59:26;;;;;;;11.75;3.78;;;;;;;8.73;69.41;100718.41;2062639;28;20302;-61
2022/04/21 03:00:33;;;;;;;7.07;3.88;;;;;;;8.72;68.77;100714.13;2048490;28;20271;-61
2022/04/21 03:01:38;;;;;;;7.53;3.40;;;;;;;8.69;69.10;100720.00;2056564;28;20278;-61
2022/04/21 03:02:41;;;;;;;11.02;3.60;;;;;;;8.63;69.08;100718.38;2063735;28;20298;-61
2022/04/21 03:03:45;;;;;;;9.43;4.40;;;;;;;8.61;69.21;100725.84;2064281;28;20289;-61
2022/04/21 03:04:54;;;;;;;12.27;3.95;;;;;;;8.60;69.54;100722.38;2063816;28;20278;-61
2022/04/21 03:05:58;;;;;;;7.28;3.55;;;;;;;8.66;69.40;100725.88;2064429;28;20356;-61
2022/04/21 03:07:02;;;;;;;11.85;3.33;;;;;;;8.69;69.41;100723.47;2063896;28;20797;-61
2022/04/21 03:08:08;;;;;;;8.25;3.60;;;;;;;8.74;69.50;100720.03;2056782;28;20286;-61
2022/04/21 03:09:14;;;;;;;5.18;3.17;;;;;;;8.73;69.41;100718.41;2056289;28;20290;-61
2022/04/21 03:10:19;;;;;;;8.95;3.55;;;;;;;8.70;69.27;100718.91;2053815;28;20050;-63
2022/04/21 03:11:22;;;;;;;14.20;3.85;;;;;;;8.73;68.98;100721.09;2049014;28;20775;-60
2022/04/21 03:12:28;;;;;;;11.10;4.00;;;;;;;8.72;69.42;100722.97;2056458;28;20286;-60
2022/04/21 03:13:31;;;;;;;10.80;3.78;;;;;;;8.75;69.38;100735.03;2064279;28;20288;-61
2022/04/21 03:14:39;;;;;;;10.45;3.83;;;;;;;8.79;69.85;100723.50;2063858;28;20293;-60
2022/04/21 03:15:41;;;;;;;8.27;3.78;;;;;;;8.85;69.02;100729.72;2065857;28;20289;-62
2022/04/21 03:16:45;;;;;;;11.95;3.92;;;;;;;8.86;69.24;100731.34;2048215;29;20714;-62
2022/04/21 03:17:48;;;;;;;9.02;3.92;;;;;;;8.88;68.48;100728.38;2049575;28;20295;-61
2022/04/21 03:18:50;;;;;;;9.20;3.90;;;;;;;8.87;69.05;100729.47;2055500;28;20306;-61
2022/04/21 03:19:55;;;;;;;12.65;3.80;;;;;;;8.84;69.15;100733.47;2057002;28;20286;-62
2022/04/21 03:25:07;;;;;;;11.45;4.10;;;;;;;8.97;68.78;100730.28;2063922;28;20298;-62
2022/04/21 03:26:15;;;;;;;9.65;4.13;;;;;;;8.99;68.32;100735.41;2059795;28;20281;-62
2022/04/21 03:27:17;;;;;;;7.32;3.90;;;;;;;8.92;68.64;100735.66;2064764;28;20293;-62
2022/04/21 03:28:19;;;;;;;11.27;4.03;;;;;;;8.90;68.71;100743.16;2064279;28;20272;-62
2022/04/21 03:29:22;;;;;;;10.38;3.75;;;;;;;8.90;68.76;100739.66;2057694;28;20793;-62
2022/04/21 03:30:24;;;;;;;8.15;3.63;;;;;;;8.87;69.10;100741.00;2072048;28;20280;-61
2022/04/21 03:31:28;;;;;;;14.57;3.97;;;;;;;8.86;69.18;100734.03;2063456;28;20293;-61
2022/04/21 03:32:31;;;;;;;10.05;3.70;;;;;;;8.86;69.05;100739.38;2048738;28;20294;-62
2022/04/21 03:33:33;;;;;;;8.48;3.78;;;;;;;8.85;68.94;100740.44;2052520;28;20294;-61
2022/04/21 03:34:35;;;;;;;7.60;3.40;;;;;;;8.89;69.22;100746.06;2056416;28;20301;-61
2022/04/21 03:35:41;;;;;;;7.95;3.22;;;;;;;8.86;69.19;100750.13;2056492;28;20695;-61
2022/04/21 03:36:49;;;;;;;8.93;3.40;;;;;;;8.86;69.11;100742.06;2063075;28;20288;-62
2022/04/21 03:37:52;;;;;;;9.93;4.10;;;;;;;8.88;69.09;100747.16;2056187;28;20294;-60
2022/04/21 03:38:57;;;;;;;8.63;3.40;;;;;;;8.86;69.34;100739.38;2048644;28;20798;-61
2022/04/21 03:40:06;;;;;;;7.57;3.95;;;;;;;8.82;69.42;100743.63;2057133;28;20658;-62
2022/04/21 03:41:12;;;;;;;10.48;3.03;;;;;;;8.86;69.31;100741.25;2071891;28;20289;-61
2022/04/21 03:42:26;;;;;;;10.70;3.50;;;;;;;8.85;69.48;100743.13;2071453;28;20364;-61
2022/04/21 03:43:28;;;;;;;8.90;3.47;;;;;;;8.91;69.16;100747.44;2071970;28;20312;-60
2022/04/21 03:44:32;;;;;;;11.68;3.55;;;;;;;8.98;68.84;100744.50;2064100;28;20284;-61
2022/04/21 03:45:42;;;;;;;16.58;3.85;;;;;;;9.02;69.42;100746.41;2064050;28;20285;-61
2022/04/21 03:46:45;;;;;;;7.30;3.47;;;;;;;9.03;68.48;100744.53;2064037;28;20277;-61
2022/04/21 03:47:50;;;;;;;11.80;4.43;;;;;;;9.11;68.52;100740.53;2056172;28;20286;-63
2022/04/21 03:48:52;;;;;;;8.43;3.53;;;;;;;9.16;68.99;100743.22;2056074;28;20283;-61
2022/04/21 03:49:56;;;;;;;7.95;3.30;;;;;;;9.22;68.61;100742.97;2048843;28;20299;-61
2022/04/21 03:51:01;;;;;;;9.95;3.40;;;;;;;9.22;68.33;100737.59;2063403;28;20639;-61
2022/04/21 03:52:03;;;;;;;7.40;3.22;;;;;;;9.28;68.34;100741.13;2062888;28;20297;-62
2022/04/21 03:53:07;;;;;;;13.13;3.35;;;;;;;9.27;68.44;100739.50;2063387;28;20364;-61
2022/04/21 03:54:13;;;;;;;10.45;3.65;;;;;;;9.24;68.21;100734.69;2063690;28;20289;-60
2022/04/21 03:55:17;;;;;;;11.55;3.88;;;;;;;9.32;67.58;100739.50;2055731;28;20778;-62
2022/04/21 03:56:18;;;;;;;10.13;3.67;;;;;;;9.34;68.04;100745.41;2055775;28;20289;-60
2022/04/21 03:57:25;;;;;;;7.53;3.25;;;;;;;9.42;67.28;100739.50;2056677;28;20294;-60
2022/04/21 03:58:29;;;;;;;9.40;3.47;;;;;;;9.50;66.85;100739.00;2055775;28;20404;-60
2022/04/21 03:59:32;;;;;;;8.60;3.40;;;;;;;9.62;66.96;100740.63;2047637;28;20315;-61
2022/04/21 04:00:34;;;;;;;8.95;3.67;;;;;;;9.67;66.82;100733.38;2055761;28;20301;-61
2022/04/21 04:01:35;;;;;;;8.77;3.45;;;;;;;9.78;66.32;100736.06;2063959;28;20293;-61
2022/04/21 04:02:41;;;;;;;8.57;3.25;;;;;;;9.91;66.42;100747.06;2063345;28;20289;-66
2022/04/21 04:03:47;;;;;;;7.20;3.45;;;;;;;10.08;65.96;100733.34;2057187;28;20282;-65
2022/04/21 04:04:49;;;;;;;11.70;3.70;;;;;;;10.17;64.93;100737.09;2055979;28;20297;-65
2022/04/21 04:05:52;;;;;;;8.40;2.90;;;;;;;10.05;65.29;100749.22;2064432;28;20281;-64
2022/04/21 04:10:59;;;;;;;13.23;4.43;;;;;;;9.72;64.46;100746.00;2065745;28;20289;-66
2022/04/21 04:12:06;;;;;;;12.32;3.65;;;;;;;9.73;65.20;100745.72;2062734;28;20290;-66
2022/04/21 04:13:13;;;;;;;9.63;3.80;;;;;;;9.77;65.01;100737.13;2063005;28;20296;-66
2022/04/21 04:14:21;;;;;;;6.60;3.95;;;;;;;9.74;64.97;100738.47;2063068;28;20313;-65
2022/04/21 04:15:24;;;;;;;9.60;3.92;;;;;;;9.77;64.71;100743.31;2055694;28;20297;-66
2022/04/21 04:16:28;;;;;;;8.95;3.95;;;;;;;9.77;64.88;100740.63;2063009;28;20034;-66
2022/04/21 04:17:30;;;;;;;10.70;4.78;;;;;;;9.81;65.28;100743.59;2063551;28;20771;-66
2022/04/21 04:18:35;;;;;;;11.55;4.18;;;;;;;9.75;65.58;100743.59;2062786;28;20300;-66
2022/04/21 04:19:41;;;;;;;12.52;4.18;;;;;;;9.96;65.07;100741.72;2063256;28;20293;-66
2022/04/21 04:20:44;;;;;;;11.60;4.75;;;;;;;10.20;64.49;100749.19;2070252;28;20292;-66
2022/04/21 04:21:47;;;;;;;10.55;4.55;;;;;;;10.31;63.58;100737.41;2054903;28;20290;-68
2022/04/21 04:22:51;;;;;;;12.80;4.25;;;;;;;10.53;63.73;100744.31;2047782;28;20286;-66
2022/04/21 04:23:54;;;;;;;11.18;4.25;;;;;;;10.70;62.78;100750.19;2062360;28;20061;-65
2022/04/21 04:24:56;;;;;;;10.13;3.88;;;;;;;10.69;62.20;100753.97;2054946;28;20051;-66
2022/04/21 04:25:59;;;;;;;12.50;4.32;;;;;;;10.79;62.59;100751.22;2055140;28;20058;-65
2022/04/21 04:27:01;;;;;;;12.82;4.65;;;;;;;10.81;61.87;100761.69;2062978;28;20046;-65
2022/04/21 04:28:07;;;;;;;14.48;5.28;;;;;;;10.82;62.22;100757.94;2054977;28;20537;-65
2022/04/21 04:29:09;;;;;;;14.75;5.07;;;;;;;10.97;62.31;100757.06;2062200;28;20054;-65
2022/04/21 04:30:13;;;;;;;14.88;5.40;;;;;;;11.06;61.73;100763.47;2056001;28;20282;-64
2022/04/21 04:31:18;;;;;;;12.15;5.80;;;;;;;10.98;61.14;100756.81;2054636;28;20486;-65
2022/04/21 04:32:21;;;;;;;12.70;6.10;;;;;;;10.87;61.83;100756.03;2054998;28;20456;-65
2022/04/21 04:33:23;;;;;;;13.40;6.15;;;;;;;10.83;61.39;100754.16;2054691;28;20114;-64
2022/04/21 04:34:30;;;;;;;14.68;6.55;;;;;;;10.98;61.92;100748.72;2054837;28;20038;-68
2022/04/21 04:35:32;;;;;;;17.45;6.47;;;;;;;11.18;61.28;100739.75;2053892;28;20074;-64
2022/04/21 04:36:34;;;;;;;14.30;5.90;;;;;;;11.24;60.77;100737.84;2058556;28;20426;-65
2022/04/21 04:37:42;;;;;;;13.23;6.28;;;;;;;11.30;60.53;100753.66;2070620;28;20038;-64
2022/04/21 04:38:46;;;;;;;12.55;6.43;;;;;;;11.36;60.26;100752.56;2069998;28;20050;-65
2022/04/21 04:39:50;;;;;;;14.38;6.65;;;;;;;11.32;59.83;100751.50;2062831;28;20659;-65
2022/04/21 04:42:15;;;;;;;11.90;5.88;;;;;;;10.97;60.19;100759.75;2053359;28;20061;-64
2022/04/21 04:42:23;;;;;;;14.38;5.88;;;;;;;10.91;60.62;100759.00;2050473;28;20058;-65
2022/04/21 04:43:25;;;;;;;12.70;5.78;;;;;;;11.11;61.10;100752.69;2055036;28;20027;-66
2022/04/21 04:44:29;;;;;;;11.45;5.95;;;;;;;11.29;60.20;100762.03;2062206;28;20475;-67
2022/04/21 04:46:59;;;;;;;12.02;5.78;;;;;;;11.39;60.02;100758.47;2055375;28;20395;-62
2022/04/21 04:48:02;;;;;;;14.65;5.63;;;;;;;11.66;59.69;100755.31;2055584;28;20129;-61
2022/04/21 04:49:08;;;;;;;14.57;4.88;;;;;;;11.80;58.89;100753.59;2055392;28;20038;-60
2022/04/21 04:50:12;;;;;;;14.85;5.05;;;;;;;11.92;58.12;100755.97;2055742;28;20369;-60
2022/04/21 04:51:15;;;;;;;15.70;5.65;;;;;;;12.08;58.26;100752.06;2055324;28;20046;-61
2022/04/21 04:52:22;;;;;;;11.70;5.20;;;;;;;12.41;57.80;100744.16;2054809;28;20035;-60
2022/04/21 04:53:30;;;;;;;11.73;4.75;;;;;;;12.81;56.77;100747.50;2055539;28;20055;-60
2022/04/21 04:54:36;;;;;;;12.57;4.90;;;;;;;12.81;55.36;100736.72;2061786;28;20154;-60
2022/04/21 04:55:45;;;;;;;10.60;4.97;;;;;;;12.90;55.40;100737.69;2062739;28;20070;-60
2022/04/21 04:56:51;;;;;;;18.63;5.00;;;;;;;13.16;55.00;100728.13;2060756;28;20058;-60
2022/04/21 04:57:56;;;;;;;13.38;5.35;;;;;;;13.15;54.46;100731.16;2055285;28;20051;-60
2022/04/21 04:59:01;;;;;;;13.20;5.40;;;;;;;13.12;54.10;100726.31;2062319;28;20038;-60
2022/04/21 05:00:05;;;;;;;12.38;4.57;;;;;;;12.88;54.51;100731.75;2062327;28;20595;-60
2022/04/21 05:01:13;;;;;;;14.55;4.97;;;;;;;12.97;54.62;100736.22;2056343;28;20039;-61
2022/04/21 05:02:20;;;;;;;13.07;4.32;;;;;;;13.01;54.55;100736.44;2065023;28;20050;-62
2022/04/21 05:03:27;;;;;;;12.77;4.45;;;;;;;13.21;54.96;100735.38;2055543;28;20051;-61
2022/04/21 05:04:34;;;;;;;12.02;4.30;;;;;;;13.58;54.11;100737.28;2049910;28;20038;-61
2022/04/21 05:05:39;;;;;;;8.40;4.07;;;;;;;13.58;53.32;100742.66;2056712;28;20795;-60
2022/04/21 05:06:49;;;;;;;10.55;4.20;;;;;;;13.72;53.02;100744.66;2056654;28;20118;-63
2022/04/21 05:07:52;;;;;;;12.50;3.95;;;;;;;13.85;53.14;100743.88;2056265;28;20039;-65
2022/04/21 05:08:57;;;;;;;14.63;3.95;;;;;;;14.10;52.01;100746.16;2056079;28;20038;-64
2022/04/21 05:10:01;;;;;;;9.00;3.95;;;;;;;14.23;52.16;100743.78;2061269;28;20086;-64
2022/04/21 05:11:05;;;;;;;11.38;3.88;;;;;;;14.44;50.79;100747.72;2064933;28;20046;-64
2022/04/21 05:12:07;;;;;;;12.82;4.25;;;;;;;14.40;50.74;100749.38;2064016;28;20050;-64
2022/04/21 05:13:11;;;;;;;14.00;4.05;;;;;;;14.41;50.86;100747.47;2056748;28;20046;-62
2022/04/21 05:14:14;;;;;;;15.23;3.38;;;;;;;14.66;50.16;100754.34;2040165;29;20048;-61
2022/04/21 05:15:19;;;;;;;6.03;3.13;;;;;;;15.09;49.86;100754.00;2049421;28;20059;-61
2022/04/21 05:16:22;;;;;;;12.20;3.22;;;;;;;15.28;48.15;100752.75;2071605;28;20050;-61
2022/04/21 05:17:27;;;;;;;12.70;3.63;;;;;;;15.26;48.33;100752.28;2048035;29;20070;-62
2022/04/21 05:18:32;;;;;;;10.68;3.25;;;;;;;15.65;47.91;100763.59;2041758;28;20050;-61
2022/04/21 05:19:37;;;;;;;5.78;2.85;;;;;;;15.41;47.13;100756.53;2063701;28;20066;-62
2022/04/21 05:20:45;;;;;;;6.45;2.72;;;;;;;15.69;47.58;100756.47;2071300;28;20050;-60
2022/04/21 05:21:50;;;;;;;12.15;3.55;;;;;;;16.03;46.16;100744.25;2063736;28;20054;-62
2022/04/21 05:23:05;;;;;;;10.23;3.33;;;;;;;16.04;46.43;100754.00;2064711;28;20503;-62